createdAt,value
2018-11-25T00:00:18.640Z,8.80
2018-11-25T00:02:47.320Z,8.37
2018-11-25T00:05:15.932Z,9.00
2018-11-25T00:07:45.067Z,8.50
2018-11-25T00:10:13.979Z,8.00
2018-11-25T00:12:42.764Z,8.73
2018-11-25T00:15:12.523Z,13.13
2018-11-25T00:17:42.081Z,10.47
2018-11-25T00:20:13.218Z,8.18
2018-11-25T00:22:43.279Z,8.33
2018-11-25T00:25:13.788Z,8.37
2018-11-25T00:27:43.996Z,7.87
2018-11-25T00:30:14.962Z,7.83
2018-11-25T00:32:44.822Z,8.23
2018-11-25T00:35:16.945Z,8.90
2018-11-25T00:37:48.497Z,8.23
2018-11-25T00:40:16.394Z,12.77
2018-11-25T00:42:45.992Z,15.50
2018-11-25T00:45:18.692Z,10.83
2018-11-25T00:47:49.396Z,11.10
2018-11-25T00:50:19.482Z,58.17
2018-11-25T00:52:48.778Z,69.17
2018-11-25T00:55:18.488Z,48.90
2018-11-25T00:57:48.722Z,19.30
2018-11-25T01:00:20.014Z,18.37
2018-11-25T01:02:50.414Z,14.00
2018-11-25T01:05:19.908Z,13.30
2018-11-25T01:07:49.477Z,13.07
2018-11-25T01:10:19.093Z,15.70
2018-11-25T01:12:48.592Z,10.77
2018-11-25T01:15:18.515Z,12.53
2018-11-25T01:17:47.975Z,11.55
2018-11-25T01:20:21.043Z,12.87
2018-11-25T01:22:50.697Z,13.55
2018-11-25T01:25:20.254Z,11.90
2018-11-25T01:27:50.500Z,9.57
2018-11-25T01:30:20.703Z,7.45
2018-11-25T01:32:50.138Z,7.83
2018-11-25T01:35:19.918Z,8.07
2018-11-25T01:37:49.312Z,7.57
2018-11-25T01:40:19.639Z,9.33
2018-11-25T01:42:49.373Z,12.77
2018-11-25T01:45:18.953Z,10.83
2018-11-25T01:47:48.235Z,9.90
2018-11-25T01:50:18.510Z,11.80
2018-11-25T01:52:48.662Z,12.45
2018-11-25T01:55:19.027Z,11.90
2018-11-25T01:57:48.575Z,9.50
2018-11-25T02:00:22.330Z,10.30
2018-11-25T02:02:52.257Z,9.23
2018-11-25T02:05:22.532Z,8.40
2018-11-25T02:07:52.753Z,9.77
2018-11-25T02:10:22.154Z,9.70
2018-11-25T02:12:52.022Z,10.80
2018-11-25T02:15:21.477Z,10.90
2018-11-25T02:17:51.402Z,10.37
2018-11-25T02:20:25.458Z,11.67
2018-11-25T02:22:55.937Z,11.20
2018-11-25T02:25:26.123Z,8.57
2018-11-25T02:27:55.910Z,9.28
2018-11-25T02:30:25.408Z,11.08
2018-11-25T02:32:54.677Z,10.20
2018-11-25T02:35:24.047Z,13.10
2018-11-25T02:37:54.067Z,12.70
2018-11-25T02:40:23.398Z,11.80
2018-11-25T02:42:52.789Z,11.57
2018-11-25T02:45:22.265Z,12.03
2018-11-25T02:47:52.819Z,12.77
2018-11-25T02:50:29.889Z,13.68
2018-11-25T02:53:01.133Z,12.20
2018-11-25T02:55:31.257Z,11.83
2018-11-25T02:58:00.931Z,12.17
2018-11-25T03:00:30.510Z,12.13
2018-11-25T03:03:00.171Z,10.00
2018-11-25T03:05:30.035Z,7.60
2018-11-25T03:08:01.353Z,8.13
2018-11-25T03:10:30.839Z,8.90
2018-11-25T03:13:00.695Z,8.95
2018-11-25T03:15:30.139Z,9.07
2018-11-25T03:17:59.707Z,10.53
2018-11-25T03:20:29.476Z,10.00
2018-11-25T03:22:58.897Z,10.57
2018-11-25T03:25:28.425Z,9.03
2018-11-25T03:27:57.808Z,10.07
2018-11-25T03:30:28.215Z,10.10
2018-11-25T03:32:58.277Z,9.13
2018-11-25T03:35:28.535Z,8.97
2018-11-25T03:37:58.818Z,9.20
2018-11-25T03:40:28.888Z,8.80
2018-11-25T03:42:59.092Z,7.47
2018-11-25T03:45:29.290Z,7.10
2018-11-25T03:47:58.662Z,7.20
2018-11-25T03:50:28.853Z,7.23
2018-11-25T03:52:58.198Z,6.93
2018-11-25T03:55:27.608Z,7.87
2018-11-25T03:57:57.392Z,7.83
2018-11-25T04:00:26.766Z,6.73
2018-11-25T04:02:56.080Z,7.07
2018-11-25T04:05:26.114Z,6.35
2018-11-25T04:07:56.215Z,6.97
2018-11-25T04:10:26.448Z,6.10
2018-11-25T04:12:55.830Z,7.87
2018-11-25T04:15:25.858Z,6.93
2018-11-25T04:17:55.247Z,6.80
2018-11-25T04:20:24.566Z,6.80
2018-11-25T04:22:54.217Z,6.97
2018-11-25T04:25:23.778Z,7.40
2018-11-25T04:27:53.210Z,57.43
2018-11-25T04:30:22.788Z,9.57
2018-11-25T04:32:52.460Z,8.00
2018-11-25T04:35:21.840Z,6.50
2018-11-25T04:37:51.508Z,5.40
2018-11-25T04:40:20.995Z,5.77
2018-11-25T04:42:50.407Z,6.00
2018-11-25T04:45:20.127Z,5.80
2018-11-25T04:47:49.665Z,15.53
2018-11-25T04:50:19.911Z,7.87
2018-11-25T04:52:49.384Z,7.43
2018-11-25T04:55:19.289Z,6.73
2018-11-25T04:57:51.508Z,6.90
2018-11-25T05:00:20.946Z,8.43
2018-11-25T05:02:51.899Z,6.37
2018-11-25T05:05:21.376Z,7.10
2018-11-25T05:07:50.907Z,7.50
2018-11-25T05:10:20.440Z,6.80
2018-11-25T05:12:50.639Z,6.87
2018-11-25T05:15:20.926Z,7.00
2018-11-25T05:17:50.640Z,7.37
2018-11-25T05:20:20.544Z,7.33
2018-11-25T05:22:50.431Z,7.63
2018-11-25T05:25:20.589Z,47.03
2018-11-25T05:27:50.724Z,11.63
2018-11-25T05:30:21.967Z,9.90
2018-11-25T05:32:51.490Z,7.15
2018-11-25T05:35:22.499Z,7.95
2018-11-25T05:37:51.784Z,7.43
2018-11-25T05:40:21.039Z,7.40
2018-11-25T05:42:50.284Z,6.70
2018-11-25T05:45:20.615Z,6.40
2018-11-25T05:47:50.629Z,7.00
2018-11-25T05:50:20.270Z,6.80
2018-11-25T05:52:50.570Z,6.00
2018-11-25T05:55:20.088Z,6.67
2018-11-25T05:57:49.504Z,7.20
2018-11-25T06:00:22.666Z,6.23
2018-11-25T06:02:52.349Z,5.62
2018-11-25T06:05:21.943Z,6.17
2018-11-25T06:07:51.378Z,6.00
2018-11-25T06:10:20.942Z,5.80
2018-11-25T06:12:51.650Z,7.00
2018-11-25T06:15:21.660Z,5.87
2018-11-25T06:17:51.676Z,7.03
2018-11-25T06:20:21.194Z,6.20
2018-11-25T06:22:51.608Z,6.37
2018-11-25T06:25:21.898Z,6.47
2018-11-25T06:27:51.759Z,6.97
2018-11-25T06:30:21.854Z,8.27
2018-11-25T06:32:51.913Z,8.07
2018-11-25T06:35:21.299Z,7.20
2018-11-25T06:37:50.764Z,8.70
2018-11-25T06:40:21.404Z,7.90
2018-11-25T06:42:50.980Z,7.47
2018-11-25T06:45:25.099Z,7.60
2018-11-25T06:47:55.230Z,7.20
2018-11-25T06:50:24.668Z,10.43
2018-11-25T06:52:54.662Z,8.58
2018-11-25T06:55:24.016Z,10.70
2018-11-25T06:57:55.930Z,9.93
2018-11-25T07:00:26.449Z,10.23
2018-11-25T07:02:56.418Z,8.53
2018-11-25T07:05:25.758Z,8.70
2018-11-25T07:07:55.108Z,11.22
2018-11-25T07:10:24.806Z,8.87
2018-11-25T07:12:55.288Z,9.10
2018-11-25T07:15:24.880Z,8.10
2018-11-25T07:17:54.813Z,8.65
2018-11-25T07:20:24.183Z,9.50
2018-11-25T07:22:54.289Z,10.23
2018-11-25T07:25:23.948Z,10.40
2018-11-25T07:27:53.505Z,8.50
2018-11-25T07:30:26.856Z,10.97
2018-11-25T07:32:56.890Z,10.53
2018-11-25T07:35:28.251Z,9.17
2018-11-25T07:37:58.315Z,9.57
2018-11-25T07:40:27.893Z,10.47
2018-11-25T07:42:57.671Z,10.43
2018-11-25T07:45:30.548Z,11.30
2018-11-25T07:47:58.174Z,12.37
2018-11-25T07:50:27.579Z,14.57
2018-11-25T07:52:57.504Z,14.30
2018-11-25T07:55:27.060Z,15.83
2018-11-25T07:57:58.830Z,14.87
2018-11-25T08:00:28.981Z,14.50
2018-11-25T08:02:59.307Z,16.00
2018-11-25T08:05:29.689Z,13.37
2018-11-25T08:07:59.644Z,10.93
2018-11-25T08:10:29.120Z,12.37
2018-11-25T08:12:59.185Z,10.97
2018-11-25T08:15:29.347Z,11.60
2018-11-25T08:17:59.656Z,10.10
2018-11-25T08:20:30.590Z,8.77
2018-11-25T08:22:59.984Z,10.75
2018-11-25T08:25:29.843Z,9.50
2018-11-25T08:27:59.285Z,8.97
2018-11-25T08:30:29.459Z,9.40
2018-11-25T08:32:58.903Z,10.23
2018-11-25T08:35:28.886Z,12.40
2018-11-25T08:37:59.634Z,9.50
2018-11-25T08:40:29.554Z,10.30
2018-11-25T08:42:59.746Z,10.27
2018-11-25T08:45:29.790Z,10.50
2018-11-25T08:47:59.763Z,9.50
2018-11-25T08:50:30.371Z,10.47
2018-11-25T08:53:00.192Z,9.77
2018-11-25T08:55:30.774Z,9.70
2018-11-25T08:58:00.642Z,9.83
2018-11-25T09:00:30.965Z,10.10
2018-11-25T09:03:01.269Z,10.60
2018-11-25T09:05:31.875Z,11.13
2018-11-25T09:08:02.515Z,11.53
2018-11-25T09:10:32.678Z,10.53
2018-11-25T09:13:02.610Z,11.48
2018-11-25T09:15:33.632Z,11.83
2018-11-25T09:18:05.140Z,12.15
2018-11-25T09:20:34.930Z,12.73
2018-11-25T09:23:04.827Z,14.50
2018-11-25T09:25:34.985Z,12.25
2018-11-25T09:28:05.055Z,12.80
2018-11-25T09:30:35.404Z,11.30
2018-11-25T09:33:05.547Z,11.67
2018-11-25T09:35:36.221Z,12.00
2018-11-25T09:38:06.166Z,12.93
2018-11-25T09:40:36.039Z,15.40
2018-11-25T09:43:06.397Z,15.23
2018-11-25T09:45:37.472Z,17.10
2018-11-25T09:48:07.751Z,15.55
2018-11-25T09:50:37.221Z,16.70
2018-11-25T09:53:06.985Z,15.93
2018-11-25T09:55:36.744Z,20.93
2018-11-25T09:58:06.470Z,17.10
2018-11-25T10:00:37.164Z,15.00
2018-11-25T10:03:07.803Z,24.73
2018-11-25T10:05:38.089Z,16.13
2018-11-25T10:08:07.990Z,18.10
2018-11-25T10:10:37.563Z,16.87
2018-11-25T10:13:07.222Z,15.47
2018-11-25T10:15:36.725Z,16.70
2018-11-25T10:18:06.635Z,16.37
2018-11-25T10:20:36.242Z,14.83
2018-11-25T10:23:05.913Z,15.00
2018-11-25T10:25:35.702Z,13.83
2018-11-25T10:28:05.948Z,13.60
2018-11-25T10:30:35.984Z,12.37
2018-11-25T10:33:08.178Z,14.10
2018-11-25T10:35:37.539Z,12.63
2018-11-25T10:38:07.523Z,12.03
2018-11-25T10:40:37.148Z,13.27
2018-11-25T10:43:06.900Z,12.50
2018-11-25T10:45:37.359Z,14.43
2018-11-25T10:48:08.640Z,12.83
2018-11-25T10:50:38.585Z,12.37
2018-11-25T10:53:09.023Z,13.53
2018-11-25T10:55:39.026Z,12.83
2018-11-25T10:58:09.278Z,11.70
2018-11-25T11:00:44.139Z,10.67
2018-11-25T11:03:20.396Z,11.53
2018-11-25T11:05:54.637Z,12.63
2018-11-25T11:08:26.561Z,11.37
2018-11-25T11:10:57.086Z,12.03
2018-11-25T11:13:27.086Z,11.67
2018-11-25T11:15:57.274Z,11.17
2018-11-25T11:18:27.849Z,11.10
2018-11-25T11:20:58.204Z,10.60
2018-11-25T11:23:27.796Z,10.17
2018-11-25T11:25:57.988Z,9.60
2018-11-25T11:28:28.098Z,8.30
2018-11-25T11:30:58.397Z,8.33
2018-11-25T11:33:27.834Z,8.57
2018-11-25T11:35:57.950Z,8.13
2018-11-25T11:38:27.588Z,7.90
2018-11-25T11:40:57.319Z,7.50
2018-11-25T11:43:27.380Z,7.50
2018-11-25T11:45:57.737Z,7.10
2018-11-25T11:48:27.780Z,6.87
2018-11-25T11:50:57.829Z,8.00
2018-11-25T11:53:27.411Z,8.20
2018-11-25T11:55:56.942Z,8.23
2018-11-25T11:58:27.460Z,8.73
2018-11-25T12:00:57.746Z,8.87
2018-11-25T12:03:27.214Z,8.90
2018-11-25T12:05:57.342Z,9.20
2018-11-25T12:08:27.387Z,8.67
2018-11-25T12:10:56.931Z,9.73
2018-11-25T12:13:26.871Z,9.80
2018-11-25T12:15:57.081Z,10.40
2018-11-25T12:20:56.309Z,11.67
2018-11-25T12:23:27.525Z,11.57
2018-11-25T12:25:58.415Z,11.07
2018-11-25T12:28:28.667Z,10.03
2018-11-25T12:30:58.663Z,9.90
2018-11-25T12:33:29.826Z,9.10
2018-11-25T12:35:59.885Z,9.30
2018-11-25T12:38:29.834Z,10.20
2018-11-25T12:40:59.827Z,9.83
2018-11-25T12:43:30.246Z,9.35
2018-11-25T12:46:00.892Z,8.90
2018-11-25T12:48:30.653Z,7.62
2018-11-25T12:51:00.417Z,10.18
2018-11-25T12:53:30.161Z,7.90
2018-11-25T12:56:00.295Z,9.20
2018-11-25T12:58:31.818Z,8.33
2018-11-25T13:01:01.720Z,7.87
2018-11-25T13:03:32.095Z,8.23
2018-11-25T13:06:02.246Z,8.40
2018-11-25T13:08:32.198Z,8.20
2018-11-25T13:11:02.940Z,7.70
2018-11-25T13:13:32.667Z,7.13
2018-11-25T13:16:03.155Z,8.30
2018-11-25T13:18:33.670Z,7.47
2018-11-25T13:21:03.960Z,6.07
2018-11-25T13:23:34.537Z,7.17
2018-11-25T13:26:06.970Z,6.27
2018-11-25T13:28:37.657Z,6.97
2018-11-25T13:31:07.951Z,5.27
2018-11-25T13:33:38.058Z,5.90
2018-11-25T13:36:10.695Z,5.10
2018-11-25T13:38:40.427Z,4.60
2018-11-25T13:41:10.406Z,4.33
2018-11-25T13:43:40.921Z,3.40
2018-11-25T13:46:11.579Z,3.80
2018-11-25T13:48:42.385Z,3.37
2018-11-25T13:51:13.287Z,3.37
2018-11-25T13:53:43.641Z,4.00
2018-11-25T13:56:13.830Z,5.17
2018-11-25T13:58:45.257Z,4.67
2018-11-25T14:01:15.258Z,5.30
2018-11-25T14:03:45.280Z,6.10
2018-11-25T14:06:15.786Z,5.73
2018-11-25T14:08:49.555Z,6.60
2018-11-25T14:11:18.928Z,6.77
2018-11-25T14:13:49.142Z,7.37
2018-11-25T14:16:20.258Z,6.47
2018-11-25T14:18:49.963Z,7.70
2018-11-25T14:21:19.627Z,6.70
2018-11-25T14:23:49.023Z,7.47
2018-11-25T14:26:23.496Z,6.85
2018-11-25T14:28:53.311Z,6.33
2018-11-25T14:31:23.597Z,6.57
2018-11-25T14:33:53.561Z,6.13
2018-11-25T14:36:23.802Z,7.03
2018-11-25T14:38:53.511Z,7.40
2018-11-25T14:41:23.051Z,5.30
2018-11-25T14:43:53.256Z,6.77
2018-11-25T14:46:23.021Z,6.40
2018-11-25T14:48:52.897Z,7.60
2018-11-25T14:51:22.553Z,6.83
2018-11-25T14:53:52.659Z,6.47
2018-11-25T14:56:22.351Z,6.60
2018-11-25T14:58:52.698Z,5.90
2018-11-25T15:01:22.299Z,6.00
2018-11-25T15:03:53.431Z,7.60
2018-11-25T15:06:29.283Z,7.07
2018-11-25T15:08:54.456Z,7.20
2018-11-25T15:11:24.506Z,6.83
2018-11-25T15:13:54.060Z,9.00
2018-11-25T15:16:23.851Z,6.60
2018-11-25T15:18:53.418Z,6.80
2018-11-25T15:21:23.272Z,7.30
2018-11-25T15:23:53.592Z,7.07
2018-11-25T15:26:23.777Z,5.70
2018-11-25T15:28:53.291Z,6.50
2018-11-25T15:31:23.218Z,6.45
2018-11-25T15:33:52.971Z,5.80
2018-11-25T15:36:22.625Z,7.07
2018-11-25T15:38:52.020Z,7.40
2018-11-25T15:41:21.913Z,8.77
2018-11-25T15:43:52.299Z,7.60
2018-11-25T15:46:22.130Z,8.20
2018-11-25T15:48:51.732Z,10.40
2018-11-25T15:51:21.728Z,9.93
2018-11-25T15:53:51.820Z,8.40
2018-11-25T15:56:21.369Z,9.20
2018-11-25T15:58:52.344Z,8.48
2018-11-25T16:01:21.798Z,8.97
2018-11-25T16:03:51.662Z,8.83
2018-11-25T16:06:26.686Z,8.83
2018-11-25T16:08:56.232Z,8.58
2018-11-25T16:11:27.340Z,12.40
2018-11-25T16:13:57.781Z,8.10
2018-11-25T16:16:27.989Z,7.77
2018-11-25T16:19:01.503Z,7.90
2018-11-25T16:21:31.729Z,8.43
2018-11-25T16:24:02.371Z,9.03
2018-11-25T16:26:34.687Z,8.67
2018-11-25T16:29:15.405Z,8.77
2018-11-25T16:31:45.485Z,7.90
2018-11-25T16:34:15.808Z,8.23
2018-11-25T16:36:45.974Z,8.07
2018-11-25T16:39:16.286Z,7.73
2018-11-25T16:41:46.256Z,7.97
2018-11-25T16:44:17.324Z,8.57
2018-11-25T16:46:46.724Z,7.67
2018-11-25T16:49:17.934Z,8.20
2018-11-25T16:51:49.221Z,7.97
2018-11-25T16:54:20.267Z,7.50
2018-11-25T16:56:50.936Z,8.50
2018-11-25T16:59:28.628Z,8.30
2018-11-25T17:01:58.547Z,7.65
2018-11-25T17:04:28.784Z,7.10
2018-11-25T17:06:58.927Z,7.03
2018-11-25T17:09:29.242Z,7.03
2018-11-25T17:11:59.303Z,8.20
2018-11-25T17:14:33.945Z,8.27
2018-11-25T17:17:00.888Z,7.50
2018-11-25T17:19:31.676Z,7.23
2018-11-25T17:22:03.391Z,7.10
2018-11-25T17:24:34.251Z,7.47
2018-11-25T17:27:04.600Z,7.37
2018-11-25T17:29:34.577Z,7.55
2018-11-25T17:32:05.328Z,7.43
2018-11-25T17:34:36.073Z,7.62
2018-11-25T17:37:07.754Z,8.83
2018-11-25T17:39:40.173Z,7.33
2018-11-25T17:42:12.058Z,9.43
2018-11-25T17:44:42.168Z,12.10
2018-11-25T17:47:12.387Z,15.87
2018-11-25T17:49:42.991Z,9.87
2018-11-25T17:52:14.251Z,8.35
2018-11-25T17:54:44.398Z,9.17
2018-11-25T17:57:14.938Z,9.00
2018-11-25T17:59:46.437Z,8.98
2018-11-25T18:02:16.992Z,9.30
2018-11-25T18:04:47.349Z,9.98
2018-11-25T18:07:17.694Z,8.80
2018-11-25T18:09:47.881Z,9.57
2018-11-25T18:12:17.757Z,8.80
2018-11-25T18:14:48.172Z,8.08
2018-11-25T18:17:18.929Z,9.40
2018-11-25T18:19:49.342Z,9.33
2018-11-25T18:22:24.208Z,9.53
2018-11-25T18:24:54.796Z,8.33
2018-11-25T18:27:25.363Z,8.13
2018-11-25T18:29:55.997Z,9.53
2018-11-25T18:32:28.273Z,8.60
2018-11-25T18:34:58.395Z,8.73
2018-11-25T18:37:28.714Z,9.80
2018-11-25T18:39:59.402Z,11.00
2018-11-25T18:42:29.662Z,12.50
2018-11-25T18:44:59.964Z,13.40
2018-11-25T18:47:30.168Z,12.40
2018-11-25T18:50:00.408Z,13.80
2018-11-25T18:52:31.674Z,11.70
2018-11-25T18:55:00.292Z,14.87
2018-11-25T18:57:31.325Z,14.70
2018-11-25T19:00:02.846Z,16.07
2018-11-25T19:02:41.564Z,14.73
2018-11-25T19:05:13.542Z,16.00
2018-11-25T19:07:43.760Z,19.57
2018-11-25T19:10:17.785Z,16.83
2018-11-25T19:12:48.934Z,15.87
2018-11-25T19:15:23.273Z,15.23
2018-11-25T19:17:53.579Z,17.80
2018-11-25T19:20:26.798Z,18.30
2018-11-25T19:22:57.702Z,15.03
2018-11-25T19:25:28.250Z,14.23
2018-11-25T19:27:58.851Z,14.83
2018-11-25T19:30:29.494Z,15.45
2018-11-25T19:32:59.517Z,14.87
2018-11-25T19:35:30.398Z,16.20
2018-11-25T19:38:01.984Z,14.30
2018-11-25T19:40:31.995Z,14.83
2018-11-25T19:43:03.160Z,15.83
2018-11-25T19:45:33.538Z,15.08
2018-11-25T19:48:03.846Z,13.40
2018-11-25T19:50:35.522Z,14.57
2018-11-25T19:53:07.738Z,13.73
2018-11-25T19:55:37.916Z,12.27
2018-11-25T19:58:09.039Z,13.43
2018-11-25T20:00:39.438Z,13.87
2018-11-25T20:03:11.297Z,14.10
2018-11-25T20:05:42.852Z,13.47
2018-11-25T20:08:13.094Z,14.27
2018-11-25T20:10:43.159Z,14.23
2018-11-25T20:13:14.052Z,14.20
2018-11-25T20:15:44.488Z,12.20
2018-11-25T20:18:14.427Z,11.00
2018-11-25T20:20:48.438Z,12.30
2018-11-25T20:23:17.970Z,12.67
2018-11-25T20:25:48.729Z,12.57
2018-11-25T20:28:18.868Z,12.13
2018-11-25T20:30:48.744Z,12.53
2018-11-25T20:33:23.969Z,12.20
2018-11-25T20:35:53.958Z,14.10
2018-11-25T20:38:29.717Z,12.45
2018-11-25T20:40:59.654Z,12.30
2018-11-25T20:43:30.184Z,14.30
2018-11-25T20:46:05.658Z,15.00
2018-11-25T20:48:35.248Z,14.60
2018-11-25T20:51:05.372Z,14.80
2018-11-25T20:53:40.234Z,15.30
2018-11-25T20:56:09.871Z,14.80
2018-11-25T20:58:40.123Z,15.20
2018-11-25T21:01:10.110Z,14.30
2018-11-25T21:03:39.560Z,12.88
2018-11-25T21:06:09.743Z,14.17
2018-11-25T21:08:39.475Z,16.27
2018-11-25T21:11:09.155Z,14.67
2018-11-25T21:13:39.207Z,16.03
2018-11-25T21:16:08.535Z,13.40
2018-11-25T21:18:38.859Z,13.62
2018-11-25T21:21:09.019Z,13.50
2018-11-25T21:23:38.992Z,14.50
2018-11-25T21:26:09.407Z,14.60
2018-11-25T21:28:39.819Z,13.70
2018-11-25T21:31:15.683Z,14.10
2018-11-25T21:33:45.679Z,14.37
2018-11-25T21:36:15.096Z,15.80
2018-11-25T21:38:45.994Z,15.53
2018-11-25T21:41:16.367Z,13.50
2018-11-25T21:43:45.995Z,14.93
2018-11-25T21:46:15.860Z,13.67
2018-11-25T21:48:45.537Z,12.73
2018-11-25T21:51:15.188Z,13.83
2018-11-25T21:53:44.565Z,13.77
2018-11-25T21:56:14.540Z,12.20
2018-11-25T21:58:44.678Z,12.60
2018-11-25T22:01:14.952Z,13.20
2018-11-25T22:03:45.174Z,12.88
2018-11-25T22:06:14.628Z,14.17
2018-11-25T22:08:47.077Z,12.03
2018-11-25T22:11:16.778Z,12.60
2018-11-25T22:13:46.068Z,12.50
2018-11-25T22:16:16.230Z,12.50
2018-11-25T22:18:45.616Z,11.40
2018-11-25T22:21:15.514Z,11.37
2018-11-25T22:23:44.917Z,12.37
2018-11-25T22:26:15.415Z,11.70
2018-11-25T22:28:45.417Z,11.87
2018-11-25T22:31:15.489Z,12.60
2018-11-25T22:33:44.877Z,13.33
2018-11-25T22:36:14.883Z,11.90
2018-11-25T22:38:44.275Z,12.70
2018-11-25T22:41:13.871Z,13.20
2018-11-25T22:43:43.399Z,13.00
2018-11-25T22:46:12.749Z,11.97
2018-11-25T22:48:42.313Z,11.70
2018-11-25T22:51:12.049Z,12.10
2018-11-25T22:53:41.992Z,13.00
2018-11-25T22:56:11.700Z,12.20
2018-11-25T22:58:42.653Z,13.53
2018-11-25T23:01:12.170Z,12.90
2018-11-25T23:03:43.328Z,13.13
2018-11-25T23:06:24.042Z,12.87
2018-11-25T23:08:53.360Z,12.07
2018-11-25T23:11:23.124Z,13.60
2018-11-25T23:13:52.560Z,12.00
2018-11-25T23:16:23.006Z,12.80
2018-11-25T23:18:52.344Z,12.70
2018-11-25T23:21:22.239Z,13.10
2018-11-25T23:23:51.480Z,15.75
2018-11-25T23:26:21.558Z,13.80
2018-11-25T23:28:50.899Z,14.27
2018-11-25T23:31:20.213Z,15.20
2018-11-25T23:33:49.640Z,13.38
2018-11-25T23:36:19.359Z,13.10
2018-11-25T23:38:49.572Z,14.00
2018-11-25T23:41:19.629Z,13.63
2018-11-25T23:43:49.077Z,13.23
2018-11-25T23:46:18.434Z,13.83
2018-11-25T23:48:48.480Z,13.70
2018-11-25T23:51:17.970Z,14.03
2018-11-25T23:53:48.039Z,13.00
2018-11-25T23:56:17.648Z,14.73
2018-11-25T23:58:47.548Z,13.93
